Terminal Aerodrome Forecast
Issued by NWS

Home | Current Version | Previous Version | Text Only | Print | Product List | Glossary On
Versions: 1 2 3 4 5 6 7 8 9 10 11 12 13 14 15 16
000
FTUS46 KSEW 170500
TAFBLI
TAF
KBLI 170536Z 1706/1806 14006KT 5SM -RA OVC015
     FM171500 15014G24KT P6SM -RA SCT015 OVC025
     FM172200 19014KT P6SM -SHRA BKN025 OVC040=

USA.gov is the U.S. government's official web portal to all federal, state and local government web resources and services.